sensor_id;sensor_type;location;lat;lon;timestamp;pressure;altitude;pressure_sealevel;temperature;humidity
31183;BME280;17813;0.000;0.000;2022-11-15T00:01:17;99298.66;;;4.75;85.39
31183;BME280;17813;0.000;0.000;2022-11-15T00:03:44;99307.34;;;4.77;85.44
31183;BME280;17813;0.000;0.000;2022-11-15T00:06:12;76678.69;;;-142.58;85.44
31183;BME280;17813;0.000;0.000;2022-11-15T00:08:39;99300.66;;;4.90;85.42
31183;BME280;17813;0.000;0.000;2022-11-15T00:11:08;99298.75;;;4.94;85.58
31183;BME280;17813;0.000;0.000;2022-11-15T00:13:36;99294.03;;;5.02;85.23
31183;BME280;17813;0.000;0.000;2022-11-15T00:16:09;99296.53;;;5.05;85.05
31183;BME280;17813;0.000;0.000;2022-11-15T00:18:38;99295.50;;;5.09;84.96
31183;BME280;17813;0.000;0.000;2022-11-15T00:21:07;99293.34;;;5.18;85.42
31183;BME280;17813;0.000;0.000;2022-11-15T00:23:36;99292.13;;;5.27;85.44
31183;BME280;17813;0.000;0.000;2022-11-15T00:26:03;99286.53;;;5.35;85.66
31183;BME280;17813;0.000;0.000;2022-11-15T01:30:37;99255.50;;;5.23;86.79
31183;BME280;17813;0.000;0.000;2022-11-15T01:33:13;99248.28;;;5.28;86.17
31183;BME280;17813;0.000;0.000;2022-11-15T01:35:47;99261.81;;;5.39;86.93
31183;BME280;17813;0.000;0.000;2022-11-15T01:38:13;99252.72;;;5.46;86.30
31183;BME280;17813;0.000;0.000;2022-11-15T01:40:40;99259.34;;;5.55;86.61
31183;BME280;17813;0.000;0.000;2022-11-15T01:43:27;76540.34;;;-142.58;86.61
31183;BME280;17813;0.000;0.000;2022-11-15T01:46:23;99247.31;;;5.49;85.42
31183;BME280;17813;0.000;0.000;2022-11-15T01:48:53;99251.41;;;5.36;85.25
31183;BME280;17813;0.000;0.000;2022-11-15T03:30:04;99177.66;;;5.39;86.24
31183;BME280;17813;0.000;0.000;2022-11-15T03:32:37;99173.75;;;5.47;86.22
31183;BME280;17813;0.000;0.000;2022-11-15T03:35:26;99183.28;;;5.50;86.16
31183;BME280;17813;0.000;0.000;2022-11-15T03:38:19;99173.75;;;5.47;85.44
31183;BME280;17813;0.000;0.000;2022-11-15T03:41:11;99171.47;;;5.40;85.06
31183;BME280;17813;0.000;0.000;2022-11-15T03:43:47;99175.22;;;5.34;85.65
31183;BME280;17813;0.000;0.000;2022-11-15T03:46:36;99179.97;;;5.26;85.28
31183;BME280;17813;0.000;0.000;2022-11-15T03:49:15;99179.56;;;5.15;86.00
31183;BME280;17813;0.000;0.000;2022-11-15T03:51:44;99176.22;;;5.11;85.84
31183;BME280;17813;0.000;0.000;2022-11-15T03:54:12;99166.84;;;5.06;85.88
31183;BME280;17813;0.000;0.000;2022-11-15T03:56:39;76532.22;;;-142.58;85.88
31183;BME280;17813;0.000;0.000;2022-11-15T03:59:07;99163.41;;;5.04;86.59
31183;BME280;17813;0.000;0.000;2022-11-15T04:01:34;99168.88;;;4.99;85.84
31183;BME280;17813;0.000;0.000;2022-11-15T04:04:00;99163.97;;;4.92;85.90
31183;BME280;17813;0.000;0.000;2022-11-15T04:06:27;99167.84;;;4.83;85.49
31183;BME280;17813;0.000;0.000;2022-11-15T04:08:55;99166.34;;;4.77;85.60
31183;BME280;17813;0.000;0.000;2022-11-15T04:11:22;99171.78;;;4.73;85.60
31183;BME280;17813;0.000;0.000;2022-11-15T04:13:48;99181.56;;;4.69;85.88
31183;BME280;17813;0.000;0.000;2022-11-15T04:16:15;99185.31;;;4.64;85.68
31183;BME280;17813;0.000;0.000;2022-11-15T04:18:42;99182.09;;;4.57;85.47
31183;BME280;17813;0.000;0.000;2022-11-15T04:21:09;99191.88;;;4.53;85.84
31183;BME280;17813;0.000;0.000;2022-11-15T04:23:55;99185.16;;;4.46;85.65
31183;BME280;17813;0.000;0.000;2022-11-15T04:26:37;99179.19;;;4.43;86.14
31183;BME280;17813;0.000;0.000;2022-11-15T04:29:06;99179.91;;;4.46;86.50
31183;BME280;17813;0.000;0.000;2022-11-15T07:27:55;99153.19;;;5.74;87.01
31183;BME280;17813;0.000;0.000;2022-11-15T07:30:23;99159.41;;;5.92;86.05
31183;BME280;17813;0.000;0.000;2022-11-15T07:32:56;99151.63;;;6.08;85.52
31183;BME280;17813;0.000;0.000;2022-11-15T07:35:25;99157.13;;;6.21;85.32
31183;BME280;17813;0.000;0.000;2022-11-15T07:38:12;99150.50;;;6.31;84.91
31183;BME280;17813;0.000;0.000;2022-11-15T07:40:39;99154.13;;;6.45;84.74
31183;BME280;17813;0.000;0.000;2022-11-15T07:43:07;99149.00;;;6.77;84.52
31183;BME280;17813;0.000;0.000;2022-11-15T07:45:43;99148.31;;;7.88;82.37
31183;BME280;17813;0.000;0.000;2022-11-15T07:48:11;99135.69;;;9.42;76.73
31183;BME280;17813;0.000;0.000;2022-11-15T07:50:42;99132.72;;;10.82;72.23
31183;BME280;17813;0.000;0.000;2022-11-15T07:53:10;99121.50;;;11.79;68.01
31183;BME280;17813;0.000;0.000;2022-11-15T07:55:42;99121.19;;;12.66;64.62
31183;BME280;17813;0.000;0.000;2022-11-15T07:58:11;99119.31;;;13.48;61.81
31183;BME280;17813;0.000;0.000;2022-11-15T08:00:39;99118.38;;;14.03;59.48
31183;BME280;17813;0.000;0.000;2022-11-15T08:03:11;99109.56;;;14.67;55.60
31183;BME280;17813;0.000;0.000;2022-11-15T08:05:40;99110.41;;;15.39;56.52
31183;BME280;17813;0.000;0.000;2022-11-15T08:08:09;99117.19;;;16.24;54.73
31183;BME280;17813;0.000;0.000;2022-11-15T08:10:38;99110.81;;;17.02;52.52
31183;BME280;17813;0.000;0.000;2022-11-15T08:13:08;99119.88;;;17.38;49.06
31183;BME280;17813;0.000;0.000;2022-11-15T08:15:36;99111.84;;;17.75;49.30
31183;BME280;17813;0.000;0.000;2022-11-15T08:18:08;99110.44;;;18.26;48.32
31183;BME280;17813;0.000;0.000;2022-11-15T08:20:36;99090.13;;;18.77;46.94
31183;BME280;17813;0.000;0.000;2022-11-15T08:23:04;99096.75;;;19.08;45.48
31183;BME280;17813;0.000;0.000;2022-11-15T08:25:34;99092.56;;;19.40;44.88
31183;BME280;17813;0.000;0.000;2022-11-15T08:49:36;99065.91;;;18.69;41.61
31183;BME280;17813;0.000;0.000;2022-11-15T08:52:04;99062.84;;;18.89;41.31
31183;BME280;17813;0.000;0.000;2022-11-15T08:54:34;99054.75;;;19.07;41.29
31183;BME280;17813;0.000;0.000;2022-11-15T08:57:02;99054.94;;;19.14;41.52
31183;BME280;17813;0.000;0.000;2022-11-15T08:59:30;99050.38;;;19.40;40.60
31183;BME280;17813;0.000;0.000;2022-11-15T09:01:59;99059.28;;;19.75;40.58
31183;BME280;17813;0.000;0.000;2022-11-15T09:04:27;99052.09;;;19.83;39.74
31183;BME280;17813;0.000;0.000;2022-11-15T09:06:54;99054.31;;;19.96;40.50
31183;BME280;17813;0.000;0.000;2022-11-15T09:09:27;99041.28;;;20.42;39.13
31183;BME280;17813;0.000;0.000;2022-11-15T09:12:00;99046.84;;;20.89;37.70
31183;BME280;17813;0.000;0.000;2022-11-15T09:14:49;99042.81;;;20.85;38.33
31183;BME280;17813;0.000;0.000;2022-11-15T09:17:17;99046.13;;;21.03;36.94
31183;BME280;17813;0.000;0.000;2022-11-15T09:19:46;99049.16;;;21.25;37.33
31183;BME280;17813;0.000;0.000;2022-11-15T09:22:16;99045.31;;;21.58;36.75
31183;BME280;17813;0.000;0.000;2022-11-15T09:25:10;99035.78;;;21.78;35.51
31183;BME280;17813;0.000;0.000;2022-11-15T09:27:39;99030.09;;;22.50;35.94
31183;BME280;17813;0.000;0.000;2022-11-15T09:30:06;99025.63;;;22.80;34.93
31183;BME280;17813;0.000;0.000;2022-11-15T09:32:35;99019.41;;;22.94;34.00
31183;BME280;17813;0.000;0.000;2022-11-15T09:35:02;99020.16;;;23.03;34.51
31183;BME280;17813;0.000;0.000;2022-11-15T09:37:32;99017.53;;;22.95;34.56
31183;BME280;17813;0.000;0.000;2022-11-15T09:40:03;99019.59;;;23.37;34.21
31183;BME280;17813;0.000;0.000;2022-11-15T09:53:01;99010.47;;;22.71;33.92
31183;BME280;17813;0.000;0.000;2022-11-15T09:56:02;98996.84;;;22.27;33.33
31183;BME280;17813;0.000;0.000;2022-11-15T10:04:17;98994.22;;;21.88;35.44
31183;BME280;17813;0.000;0.000;2022-11-15T10:09:47;98995.47;;;21.77;34.85
31183;BME280;17813;0.000;0.000;2022-11-15T10:12:18;98990.00;;;22.39;34.57
31183;BME280;17813;0.000;0.000;2022-11-15T10:14:46;98990.84;;;22.39;33.73
31183;BME280;17813;0.000;0.000;2022-11-15T10:20:11;98977.81;;;22.81;32.74
31183;BME280;17813;0.000;0.000;2022-11-15T10:22:41;98982.03;;;22.60;33.42
31183;BME280;17813;0.000;0.000;2022-11-15T10:25:29;98976.00;;;22.35;33.08
31183;BME280;17813;0.000;0.000;2022-11-15T10:30:38;98957.19;;;22.04;34.27
31183;BME280;17813;0.000;0.000;2022-11-15T10:36:28;98955.72;;;22.39;33.43
31183;BME280;17813;0.000;0.000;2022-11-15T10:38:57;98948.88;;;22.66;33.07
31183;BME280;17813;0.000;0.000;2022-11-15T16:23:31;98712.84;;;8.55;67.85
31183;BME280;17813;0.000;0.000;2022-11-15T16:25:59;98710.09;;;8.56;67.54
31183;BME280;17813;0.000;0.000;2022-11-15T16:28:32;98711.47;;;8.49;67.88
31183;BME280;17813;0.000;0.000;2022-11-15T16:31:09;98706.03;;;8.38;67.98
31183;BME280;17813;0.000;0.000;2022-11-15T16:33:37;98697.47;;;8.34;68.62
31183;BME280;17813;0.000;0.000;2022-11-15T16:36:06;98702.91;;;8.31;68.33
31183;BME280;17813;0.000;0.000;2022-11-15T16:38:43;98692.44;;;8.30;68.08
31183;BME280;17813;0.000;0.000;2022-11-15T16:41:13;98681.88;;;8.30;68.21
31183;BME280;17813;0.000;0.000;2022-11-15T16:43:40;98693.13;;;8.19;68.74
31183;BME280;17813;0.000;0.000;2022-11-15T16:48:46;98688.09;;;7.88;69.21
31183;BME280;17813;0.000;0.000;2022-11-15T16:51:14;98698.13;;;7.83;69.33
31183;BME280;17813;0.000;0.000;2022-11-15T16:53:44;98710.34;;;7.69;70.94
31183;BME280;17813;0.000;0.000;2022-11-15T16:56:28;98713.28;;;7.51;71.70
31183;BME280;17813;0.000;0.000;2022-11-15T16:58:58;98710.34;;;7.41;72.80
31183;BME280;17813;0.000;0.000;2022-11-15T17:01:30;98697.06;;;7.42;72.22
31183;BME280;17813;0.000;0.000;2022-11-15T17:04:00;98701.69;;;7.39;72.08
31183;BME280;17813;0.000;0.000;2022-11-15T17:06:41;98705.91;;;7.27;74.04
31183;BME280;17813;0.000;0.000;2022-11-15T17:09:18;98704.00;;;7.15;74.30
31183;BME280;17813;0.000;0.000;2022-11-15T17:11:46;98703.72;;;7.05;74.34
31183;BME280;17813;0.000;0.000;2022-11-15T17:14:13;98709.94;;;7.04;73.52
31183;BME280;17813;0.000;0.000;2022-11-15T20:21:32;98593.44;;;4.82;82.32
31183;BME280;17813;0.000;0.000;2022-11-15T20:23:59;98580.78;;;4.73;82.31
31183;BME280;17813;0.000;0.000;2022-11-15T20:26:26;98583.41;;;4.73;82.56
31183;BME280;17813;0.000;0.000;2022-11-15T20:28:54;98590.28;;;4.75;83.06
31183;BME280;17813;0.000;0.000;2022-11-15T20:31:28;98578.00;;;4.76;81.99
31183;BME280;17813;0.000;0.000;2022-11-15T20:33:55;98583.28;;;4.59;83.20
31183;BME280;17813;0.000;0.000;2022-11-15T20:36:22;98584.22;;;4.58;83.82
31183;BME280;17813;0.000;0.000;2022-11-15T20:38:49;98575.44;;;4.74;82.51
31183;BME280;17813;0.000;0.000;2022-11-15T20:41:16;98577.63;;;4.66;83.35
31183;BME280;17813;0.000;0.000;2022-11-15T20:43:43;98577.00;;;4.78;83.08
31183;BME280;17813;0.000;0.000;2022-11-15T20:46:11;98576.25;;;4.92;82.14
31183;BME280;17813;0.000;0.000;2022-11-15T20:48:39;98577.31;;;5.05;81.42
31183;BME280;17813;0.000;0.000;2022-11-15T20:51:13;98571.63;;;5.13;81.24
31183;BME280;17813;0.000;0.000;2022-11-15T20:53:46;98564.13;;;5.23;81.05
31183;BME280;17813;0.000;0.000;2022-11-15T20:56:16;98562.88;;;5.30;80.71
31183;BME280;17813;0.000;0.000;2022-11-15T20:58:44;98549.28;;;5.37;80.16
31183;BME280;17813;0.000;0.000;2022-11-15T21:01:12;98558.47;;;5.46;80.64
31183;BME280;17813;0.000;0.000;2022-11-15T21:03:40;98558.97;;;5.53;80.53
31183;BME280;17813;0.000;0.000;2022-11-15T21:06:08;98554.22;;;5.59;79.94
31183;BME280;17813;0.000;0.000;2022-11-15T21:08:36;98553.94;;;5.64;80.41
31183;BME280;17813;0.000;0.000;2022-11-15T21:11:21;98544.03;;;5.69;80.42
31183;BME280;17813;0.000;0.000;2022-11-15T21:14:07;98545.38;;;5.76;80.46
31183;BME280;17813;0.000;0.000;2022-11-15T21:16:34;98540.19;;;5.74;80.29
31183;BME280;17813;0.000;0.000;2022-11-15T21:19:01;98544.88;;;5.69;80.08
31183;BME280;17813;0.000;0.000;2022-11-15T22:20:40;98484.41;;;5.84;81.90
31183;BME280;17813;0.000;0.000;2022-11-15T22:23:07;98475.00;;;5.95;81.89
31183;BME280;17813;0.000;0.000;2022-11-15T22:25:34;98460.53;;;6.02;81.33
31183;BME280;17813;0.000;0.000;2022-11-15T22:28:03;98462.22;;;6.03;81.62
31183;BME280;17813;0.000;0.000;2022-11-15T22:30:30;98458.56;;;6.06;81.27
31183;BME280;17813;0.000;0.000;2022-11-15T22:32:57;98458.38;;;6.09;81.65
31183;BME280;17813;0.000;0.000;2022-11-15T22:35:24;98452.00;;;6.13;81.53
31183;BME280;17813;0.000;0.000;2022-11-15T22:37:51;98455.94;;;6.20;80.67
31183;BME280;17813;0.000;0.000;2022-11-15T22:40:21;98454.72;;;6.26;80.57
31183;BME280;17813;0.000;0.000;2022-11-15T22:42:48;98453.44;;;6.33;80.08
31183;BME280;17813;0.000;0.000;2022-11-15T22:45:15;98449.56;;;6.38;80.37
31183;BME280;17813;0.000;0.000;2022-11-15T22:47:42;98439.69;;;6.42;80.44
31183;BME280;17813;0.000;0.000;2022-11-15T22:50:09;98440.53;;;6.42;80.18
31183;BME280;17813;0.000;0.000;2022-11-15T22:52:36;98433.41;;;6.44;80.07
31183;BME280;17813;0.000;0.000;2022-11-15T22:55:03;98430.66;;;6.46;80.33
31183;BME280;17813;0.000;0.000;2022-11-15T22:57:30;98425.59;;;6.43;80.16
31183;BME280;17813;0.000;0.000;2022-11-15T22:59:58;98427.28;;;6.44;80.07
31183;BME280;17813;0.000;0.000;2022-11-15T23:02:28;98415.91;;;6.43;80.23
31183;BME280;17813;0.000;0.000;2022-11-15T23:04:55;98425.59;;;6.43;80.91
31183;BME280;17813;0.000;0.000;2022-11-15T23:07:23;98417.88;;;6.40;80.58
31183;BME280;17813;0.000;0.000;2022-11-15T23:09:50;98411.66;;;6.41;80.24
31183;BME280;17813;0.000;0.000;2022-11-15T23:12:17;98407.91;;;6.45;80.65
31183;BME280;17813;0.000;0.000;2022-11-15T23:15:04;98399.06;;;6.46;80.59
31183;BME280;17813;0.000;0.000;2022-11-15T23:17:31;98403.00;;;6.53;80.37
31183;BME280;17813;0.000;0.000;2022-11-15T23:19:58;98393.88;;;6.59;79.99
